Moira Smith — WDH3439 — position and weather

sailwx.info

Track history (hours):
 
Tides and Currents Weather Stations Pressure Air Temp Water Temp Dewpoint Dewpoint Depression Visibility Wind Speed Wind Dir Waves Ship Positions

Moira Smith

Owner: Port Imperial Ferry Corp, Weehawken, NJ. More information available from US FCC via Universal Licensing System and Coast Guard Vessel Documentation Center.

Last reported at 2018-Jul-17 01:37 UTC. Time now 2018-Jul-17 04:08 UTC.
Position N 40°46' W 074°01'.

Length 22 m; draft 2 m.

Type: Passenger vessel. MMSI: 366834180.

Date/timePositionNaut miles runAvg speedWind from/ knotsBaromVisibWave heightAir tempDewpointWater temp
2018-Jul-17 01:37N 40°46' W 074°01'0 0.0
2018-Jul-17 01:29N 40°46' W 074°01'0 0.0
2018-Jul-17 00:02N 40°46' W 074°01'1 1.1
2018-Jul-16 23:25N 40°46' W 074°00'0 0.1
2018-Jul-16 22:57N 40°46' W 074°00'0 0.1
2018-Jul-16 22:29N 40°46' W 074°00'0 0.2
2018-Jul-16 21:59N 40°46' W 074°01'0 0.3
2018-Jul-16 21:27N 40°46' W 074°01'0 0.2
2018-Jul-16 20:55N 40°46' W 074°00'0 0.2
2018-Jul-16 20:25N 40°46' W 074°00'0 0.5
2018-Jul-16 19:57N 40°46' W 074°00'0 0.1
2018-Jul-16 14:05N 40°46' W 074°01'1 6.2
2018-Jul-16 13:58N 40°46' W 074°00'0 0.2
2018-Jul-16 13:29N 40°46' W 074°01'0 0.1
2018-Jul-16 13:00N 40°46' W 074°01'0 0.0
2018-Jul-16 12:30N 40°46' W 074°01'0 0.2
2018-Jul-16 12:00N 40°46' W 074°00'0 0.1
2018-Jul-16 11:29N 40°46' W 074°00'1 1.7
2018-Jul-16 10:56N 40°45' W 074°01'2 0.1
2018-Jul-16 00:33N 40°46' W 074°01'0 1.5
2018-Jul-16 00:29N 40°46' W 074°01'1 2.3
2018-Jul-16 00:00N 40°45' W 074°01'1 1.2
2018-Jul-15 23:26N 40°46' W 074°00'1 1.9
2018-Jul-15 23:00N 40°45' W 074°01'1 1.7
2018-Jul-15 22:29N 40°46' W 074°00'1 1.6
2018-Jul-15 22:00N 40°45' W 074°01'1 1.4
2018-Jul-15 21:29N 40°46' W 074°00'1 1.3
2018-Jul-15 21:00N 40°45' W 074°01'1 1.0
2018-Jul-15 20:28N 40°46' W 074°01'1 1.2
2018-Jul-15 19:59N 40°45' W 074°01'1 1.1
2018-Jul-15 19:28N 40°46' W 074°00'1 1.3
2018-Jul-15 18:57N 40°46' W 074°01'1 1.3
2018-Jul-15 18:27N 40°46' W 074°00'1 1.3
2018-Jul-15 18:00N 40°45' W 074°01'1 1.3
2018-Jul-15 17:29N 40°46' W 074°00'1 1.2
2018-Jul-15 16:59N 40°45' W 074°01'0 0.4
2018-Jul-15 16:25N 40°45' W 074°01'0 0.8
2018-Jul-15 16:00N 40°46' W 074°01'1 1.0
2018-Jul-15 15:27N 40°46' W 074°01'1 1.2
2018-Jul-15 15:00N 40°46' W 074°01'0 0.6
2018-Jul-15 14:25N 40°45' W 074°01'0 0.8
2018-Jul-15 13:59N 40°46' W 074°01'1 1.1
2018-Jul-15 13:27N 40°46' W 074°01'0 0.9
2018-Jul-15 13:00N 40°45' W 074°01'1 0.1
2018-Jul-15 00:41N 40°46' W 074°01'1 3.5
2018-Jul-15 00:30N 40°46' W 074°00'3 5.6
2018-Jul-15 00:00N 40°43' W 074°01'3 4.9
2018-Jul-14 23:27N 40°46' W 074°00'3 6.4
2018-Jul-14 23:01N 40°43' W 074°01'3 5.3
2018-Jul-14 22:29N 40°46' W 074°00'3 5.9
2018-Jul-14 22:01N 40°43' W 074°01'2 4.4
2018-Jul-14 21:30N 40°45' W 074°01'2 4.5
2018-Jul-14 21:00N 40°43' W 074°01'3 5.5
2018-Jul-14 20:30N 40°46' W 074°00'3 5.9
2018-Jul-14 20:01N 40°43' W 074°01'3 5.2
2018-Jul-14 19:28N 40°46' W 074°00'3 6.0
2018-Jul-14 19:00N 40°43' W 074°01'3 5.1
2018-Jul-14 18:29N 40°46' W 074°00'2 4.8
2018-Jul-14 18:01N 40°43' W 074°01'2 4.1
2018-Jul-14 17:27N 40°46' W 074°00'3 6.3
2018-Jul-14 17:00N 40°43' W 074°01'3 5.1
2018-Jul-14 16:28N 40°46' W 074°00'3 6.1
2018-Jul-14 16:01N 40°43' W 074°01'3 5.3
2018-Jul-14 15:29N 40°46' W 074°00'3 6.0
2018-Jul-14 15:00N 40°43' W 074°01'3 5.3
2018-Jul-14 14:29N 40°46' W 074°00'1 0.8
2018-Jul-14 13:31N 40°46' W 074°01'0 0.0
2018-Jul-14 13:00N 40°46' W 074°01'0 0.0
2018-Jul-14 00:02N 40°46' W 074°01'0 1.4
2018-Jul-13 23:59N 40°46' W 074°01'1 1.2
2018-Jul-13 23:25N 40°46' W 074°01'0 0.1
2018-Jul-13 22:57N 40°46' W 074°01'0 0.2
2018-Jul-13 22:28N 40°46' W 074°00'0 0.0
2018-Jul-13 21:57N 40°46' W 074°00'0 0.1
2018-Jul-13 21:27N 40°46' W 074°00'0 0.1
2018-Jul-13 20:57N 40°46' W 074°00'0 0.0
2018-Jul-13 20:27N 40°46' W 074°00'0 0.1
2018-Jul-13 19:59N 40°46' W 074°00'0 0.0
2018-Jul-13 13:59N 40°46' W 074°00'0 0.1
2018-Jul-13 13:29N 40°46' W 074°00'0 1.0
2018-Jul-13 13:00N 40°45' W 074°01'0 0.9
2018-Jul-13 12:29N 40°46' W 074°00'0 0.1
2018-Jul-13 11:58N 40°46' W 074°00'0 0.3
2018-Jul-13 11:30N 40°46' W 074°00'0 0.1
2018-Jul-13 10:59N 40°46' W 074°00'0 0.0
2018-Jul-13 10:27N 40°46' W 074°00'1 0.1
2018-Jul-13 00:00N 40°46' W 074°01'1 1.3
2018-Jul-12 23:27N 40°46' W 074°00'0 0.1
2018-Jul-12 23:00N 40°46' W 074°00'0 0.0
2018-Jul-12 22:29N 40°46' W 074°00'0 0.1
2018-Jul-12 21:58N 40°46' W 074°00'0 0.1
2018-Jul-12 21:28N 40°46' W 074°00'0 0.0
2018-Jul-12 20:57N 40°46' W 074°00'0 0.1
2018-Jul-12 20:27N 40°46' W 074°00'0 0.2
2018-Jul-12 19:58N 40°46' W 074°00'1 0.1
2018-Jul-12 14:14N 40°46' W 074°01'1 3.2
2018-Jul-12 14:00N 40°46' W 074°00'0 0.2
2018-Jul-12 13:28N 40°46' W 074°00'0 0.0
2018-Jul-12 12:59N 40°46' W 074°00'0 0.1
2018-Jul-12 12:30N 40°46' W 074°00'0 0.1
2018-Jul-12 11:59N 40°46' W 074°00'0 0.0
2018-Jul-12 11:28N 40°46' W 074°00'0 0.0
2018-Jul-12 10:58N 40°46' W 074°00'0 0.1
2018-Jul-12 10:28N 40°46' W 074°00'1 1.3
2018-Jul-12 10:00N 40°46' W 074°01'0 0.0
2018-Jul-12 00:01N 40°46' W 074°01'0 7.7
2018-Jul-12 00:00N 40°46' W 074°00'1 1.1
2018-Jul-11 23:27N 40°46' W 074°00'0 0.1
2018-Jul-11 22:58N 40°46' W 074°00'0 0.1
2018-Jul-11 22:28N 40°46' W 074°00'0 0.1
2018-Jul-11 21:59N 40°46' W 074°00'0 0.2
2018-Jul-11 21:27N 40°46' W 074°00'0 0.1
2018-Jul-11 20:56N 40°46' W 074°00'0 0.2
2018-Jul-11 20:27N 40°46' W 074°00'0 0.3
2018-Jul-11 19:57N 40°46' W 074°00'1 0.1
2018-Jul-11 11:49N 40°46' W 074°01'1 1.4
2018-Jul-11 11:22N 40°47' W 074°00'1 3.6
2018-Jul-11 11:00N 40°46' W 074°01'1 0.1
2018-Jul-10 23:07N 40°46' W 074°00'0 1.6
2018-Jul-10 22:59N 40°46' W 074°01'0 0.5
2018-Jul-10 22:22N 40°46' W 074°00'2 4.9
2018-Jul-10 22:00N 40°45' W 074°01'2 3.8
2018-Jul-10 21:30N 40°43' W 074°01'3 0.5
2018-Jul-10 14:08N 40°46' W 074°01'1 5.2
2018-Jul-10 14:01N 40°46' W 074°01'1 1.2
2018-Jul-10 13:30N 40°46' W 074°01'1 1.9
2018-Jul-10 12:59N 40°46' W 074°00'1 2.5
2018-Jul-10 12:29N 40°45' W 074°01'4 5.7
2018-Jul-10 11:51N 40°48' W 073°59'2 0.2
2018-Jul-09 22:29N 40°46' W 074°00'2 3.8
2018-Jul-09 22:01N 40°45' W 074°01'2 3.4
2018-Jul-09 21:30N 40°43' W 074°01'3 0.4
2018-Jul-09 13:01N 40°46' W 074°01'0 2.2
2018-Jul-09 13:00N 40°46' W 074°01'0 0.4
2018-Jul-09 12:28N 40°47' W 074°01'0 0.5
2018-Jul-09 11:44N 40°46' W 074°00'1 2.7
2018-Jul-09 11:18N 40°48' W 073°59'2 4.6
2018-Jul-09 10:58N 40°46' W 074°01'0 0.0
2018-Jul-09 00:36N 40°46' W 074°01'0 5.1
2018-Jul-09 00:30N 40°46' W 074°00'3 6.2
2018-Jul-09 00:00N 40°43' W 074°01'3 4.9
2018-Jul-08 23:26N 40°46' W 074°00'3 6.6
2018-Jul-08 23:00N 40°43' W 074°01'3 4.8
2018-Jul-08 22:26N 40°46' W 074°00'2 5.9
2018-Jul-08 22:01N 40°43' W 074°01'1 2.4
2018-Jul-08 21:31N 40°44' W 074°01'1 2.1
2018-Jul-08 21:00N 40°43' W 074°01'2 4.1
2018-Jul-08 20:26N 40°46' W 074°00'3 6.2
2018-Jul-08 20:00N 40°43' W 074°01'3 4.3
2018-Jul-08 19:25N 40°45' W 074°01'2 4.6
2018-Jul-08 19:00N 40°44' W 074°01'2 3.6
2018-Jul-08 18:26N 40°46' W 074°00'3 6.5
2018-Jul-08 18:00N 40°43' W 074°01'2 4.3
2018-Jul-08 17:30N 40°45' W 074°01'2 4.3
2018-Jul-08 17:00N 40°43' W 074°01'3 5.0
2018-Jul-08 16:27N 40°46' W 074°00'3 6.2
2018-Jul-08 16:00N 40°43' W 074°01'3 4.8
2018-Jul-08 15:27N 40°46' W 074°01'3 6.0
2018-Jul-08 15:00N 40°43' W 074°01'3 4.8
2018-Jul-08 14:28N 40°45' W 074°01'2 5.4
2018-Jul-08 14:00N 40°43' W 074°01'3 0.3
2018-Jul-08 03:06N 40°46' W 074°01'110.4
2018-Jul-08 03:00N 40°45' W 074°01'3 3.1
2018-Jul-08 02:03N 40°46' W 073°57'0 7.0
2018-Jul-08 02:01N 40°46' W 073°57'0 0.2
2018-Jul-08 00:55N 40°46' W 073°57'0 0.0
2018-Jul-08 00:02N 40°46' W 073°57'012.4
2018-Jul-08 00:00N 40°45' W 073°57'1 0.7
2018-Jul-07 23:02N 40°46' W 073°57'115.9
2018-Jul-07 23:00N 40°46' W 073°57'0 0.2
2018-Jul-07 21:58N 40°46' W 073°57'0 0.0
2018-Jul-07 20:57N 40°46' W 073°57'1 2.3
2018-Jul-07 20:29N 40°45' W 073°58'1 2.1
2018-Jul-07 19:55N 40°46' W 073°57'1 1.5
2018-Jul-07 19:30N 40°45' W 073°58'1 1.2
2018-Jul-07 18:56N 40°46' W 073°57'0 0.5
2018-Jul-07 18:30N 40°46' W 073°57'0 0.3
2018-Jul-07 17:59N 40°46' W 073°57'4 7.5
2018-Jul-07 17:30N 40°42' W 073°59'4 7.0
2018-Jul-07 17:00N 40°46' W 074°01'  
Track history (hours):
 
Tides and Currents Weather Stations Pressure Air Temp Water Temp Dewpoint Dewpoint Depression Visibility Wind Speed Wind Dir Waves Ship Positions

Moira Smith

Owner: Port Imperial Ferry Corp, Weehawken, NJ. More information available from US FCC via Universal Licensing System and Coast Guard Vessel Documentation Center.

Last reported at 2018-Jul-17 01:37 UTC. Time now 2018-Jul-17 04:08 UTC.
Position N 40°46' W 074°01'.

Length 22 m; draft 2 m.

Type: Passenger vessel. MMSI: 366834180.

Date/timePositionNaut miles runAvg speedWind from/ knotsBaromVisibWave heightAir tempDewpointWater temp
2018-Jul-17 01:37N 40°46' W 074°01'0 0.0
2018-Jul-17 01:29N 40°46' W 074°01'0 0.0
2018-Jul-17 00:02N 40°46' W 074°01'1 1.1
2018-Jul-16 23:25N 40°46' W 074°00'0 0.1
2018-Jul-16 22:57N 40°46' W 074°00'0 0.1
2018-Jul-16 22:29N 40°46' W 074°00'0 0.2
2018-Jul-16 21:59N 40°46' W 074°01'0 0.3
2018-Jul-16 21:27N 40°46' W 074°01'0 0.2
2018-Jul-16 20:55N 40°46' W 074°00'0 0.2
2018-Jul-16 20:25N 40°46' W 074°00'0 0.5
2018-Jul-16 19:57N 40°46' W 074°00'0 0.1
2018-Jul-16 14:05N 40°46' W 074°01'1 6.2
2018-Jul-16 13:58N 40°46' W 074°00'0 0.2
2018-Jul-16 13:29N 40°46' W 074°01'0 0.1
2018-Jul-16 13:00N 40°46' W 074°01'0 0.0
2018-Jul-16 12:30N 40°46' W 074°01'0 0.2
2018-Jul-16 12:00N 40°46' W 074°00'0 0.1
2018-Jul-16 11:29N 40°46' W 074°00'1 1.7
2018-Jul-16 10:56N 40°45' W 074°01'2 0.1
2018-Jul-16 00:33N 40°46' W 074°01'0 1.5
2018-Jul-16 00:29N 40°46' W 074°01'1 2.3
2018-Jul-16 00:00N 40°45' W 074°01'1 1.2
2018-Jul-15 23:26N 40°46' W 074°00'1 1.9
2018-Jul-15 23:00N 40°45' W 074°01'1 1.7
2018-Jul-15 22:29N 40°46' W 074°00'1 1.6
2018-Jul-15 22:00N 40°45' W 074°01'1 1.4
2018-Jul-15 21:29N 40°46' W 074°00'1 1.3
2018-Jul-15 21:00N 40°45' W 074°01'1 1.0
2018-Jul-15 20:28N 40°46' W 074°01'1 1.2
2018-Jul-15 19:59N 40°45' W 074°01'1 1.1
2018-Jul-15 19:28N 40°46' W 074°00'1 1.3
2018-Jul-15 18:57N 40°46' W 074°01'1 1.3
2018-Jul-15 18:27N 40°46' W 074°00'1 1.3
2018-Jul-15 18:00N 40°45' W 074°01'1 1.3
2018-Jul-15 17:29N 40°46' W 074°00'1 1.2
2018-Jul-15 16:59N 40°45' W 074°01'0 0.4
2018-Jul-15 16:25N 40°45' W 074°01'0 0.8
2018-Jul-15 16:00N 40°46' W 074°01'1 1.0
2018-Jul-15 15:27N 40°46' W 074°01'1 1.2
2018-Jul-15 15:00N 40°46' W 074°01'0 0.6
2018-Jul-15 14:25N 40°45' W 074°01'0 0.8
2018-Jul-15 13:59N 40°46' W 074°01'1 1.1
2018-Jul-15 13:27N 40°46' W 074°01'0 0.9
2018-Jul-15 13:00N 40°45' W 074°01'1 0.1
2018-Jul-15 00:41N 40°46' W 074°01'1 3.5
2018-Jul-15 00:30N 40°46' W 074°00'3 5.6
2018-Jul-15 00:00N 40°43' W 074°01'3 4.9
2018-Jul-14 23:27N 40°46' W 074°00'3 6.4
2018-Jul-14 23:01N 40°43' W 074°01'3 5.3
2018-Jul-14 22:29N 40°46' W 074°00'3 5.9
2018-Jul-14 22:01N 40°43' W 074°01'2 4.4
2018-Jul-14 21:30N 40°45' W 074°01'2 4.5
2018-Jul-14 21:00N 40°43' W 074°01'3 5.5
2018-Jul-14 20:30N 40°46' W 074°00'3 5.9
2018-Jul-14 20:01N 40°43' W 074°01'3 5.2
2018-Jul-14 19:28N 40°46' W 074°00'3 6.0
2018-Jul-14 19:00N 40°43' W 074°01'3 5.1
2018-Jul-14 18:29N 40°46' W 074°00'2 4.8
2018-Jul-14 18:01N 40°43' W 074°01'2 4.1
2018-Jul-14 17:27N 40°46' W 074°00'3 6.3
2018-Jul-14 17:00N 40°43' W 074°01'3 5.1
2018-Jul-14 16:28N 40°46' W 074°00'3 6.1
2018-Jul-14 16:01N 40°43' W 074°01'3 5.3
2018-Jul-14 15:29N 40°46' W 074°00'3 6.0
2018-Jul-14 15:00N 40°43' W 074°01'3 5.3
2018-Jul-14 14:29N 40°46' W 074°00'1 0.8
2018-Jul-14 13:31N 40°46' W 074°01'0 0.0
2018-Jul-14 13:00N 40°46' W 074°01'0 0.0
2018-Jul-14 00:02N 40°46' W 074°01'0 1.4
2018-Jul-13 23:59N 40°46' W 074°01'1 1.2
2018-Jul-13 23:25N 40°46' W 074°01'0 0.1
2018-Jul-13 22:57N 40°46' W 074°01'0 0.2
2018-Jul-13 22:28N 40°46' W 074°00'0 0.0
2018-Jul-13 21:57N 40°46' W 074°00'0 0.1
2018-Jul-13 21:27N 40°46' W 074°00'0 0.1
2018-Jul-13 20:57N 40°46' W 074°00'0 0.0
2018-Jul-13 20:27N 40°46' W 074°00'0 0.1
2018-Jul-13 19:59N 40°46' W 074°00'0 0.0
2018-Jul-13 13:59N 40°46' W 074°00'0 0.1
2018-Jul-13 13:29N 40°46' W 074°00'0 1.0
2018-Jul-13 13:00N 40°45' W 074°01'0 0.9
2018-Jul-13 12:29N 40°46' W 074°00'0 0.1
2018-Jul-13 11:58N 40°46' W 074°00'0 0.3
2018-Jul-13 11:30N 40°46' W 074°00'0 0.1
2018-Jul-13 10:59N 40°46' W 074°00'0 0.0
2018-Jul-13 10:27N 40°46' W 074°00'1 0.1
2018-Jul-13 00:00N 40°46' W 074°01'1 1.3
2018-Jul-12 23:27N 40°46' W 074°00'0 0.1
2018-Jul-12 23:00N 40°46' W 074°00'0 0.0
2018-Jul-12 22:29N 40°46' W 074°00'0 0.1
2018-Jul-12 21:58N 40°46' W 074°00'0 0.1
2018-Jul-12 21:28N 40°46' W 074°00'0 0.0
2018-Jul-12 20:57N 40°46' W 074°00'0 0.1
2018-Jul-12 20:27N 40°46' W 074°00'0 0.2
2018-Jul-12 19:58N 40°46' W 074°00'1 0.1
2018-Jul-12 14:14N 40°46' W 074°01'1 3.2
2018-Jul-12 14:00N 40°46' W 074°00'0 0.2
2018-Jul-12 13:28N 40°46' W 074°00'0 0.0
2018-Jul-12 12:59N 40°46' W 074°00'0 0.1
2018-Jul-12 12:30N 40°46' W 074°00'0 0.1
2018-Jul-12 11:59N 40°46' W 074°00'0 0.0
2018-Jul-12 11:28N 40°46' W 074°00'0 0.0
2018-Jul-12 10:58N 40°46' W 074°00'0 0.1
2018-Jul-12 10:28N 40°46' W 074°00'1 1.3
2018-Jul-12 10:00N 40°46' W 074°01'0 0.0
2018-Jul-12 00:01N 40°46' W 074°01'0 7.7
2018-Jul-12 00:00N 40°46' W 074°00'1 1.1
2018-Jul-11 23:27N 40°46' W 074°00'0 0.1
2018-Jul-11 22:58N 40°46' W 074°00'0 0.1
2018-Jul-11 22:28N 40°46' W 074°00'0 0.1
2018-Jul-11 21:59N 40°46' W 074°00'0 0.2
2018-Jul-11 21:27N 40°46' W 074°00'0 0.1
2018-Jul-11 20:56N 40°46' W 074°00'0 0.2
2018-Jul-11 20:27N 40°46' W 074°00'0 0.3
2018-Jul-11 19:57N 40°46' W 074°00'1 0.1
2018-Jul-11 11:49N 40°46' W 074°01'1 1.4
2018-Jul-11 11:22N 40°47' W 074°00'1 3.6
2018-Jul-11 11:00N 40°46' W 074°01'1 0.1
2018-Jul-10 23:07N 40°46' W 074°00'0 1.6
2018-Jul-10 22:59N 40°46' W 074°01'0 0.5
2018-Jul-10 22:22N 40°46' W 074°00'2 4.9
2018-Jul-10 22:00N 40°45' W 074°01'2 3.8
2018-Jul-10 21:30N 40°43' W 074°01'3 0.5
2018-Jul-10 14:08N 40°46' W 074°01'1 5.2
2018-Jul-10 14:01N 40°46' W 074°01'1 1.2
2018-Jul-10 13:30N 40°46' W 074°01'1 1.9
2018-Jul-10 12:59N 40°46' W 074°00'1 2.5
2018-Jul-10 12:29N 40°45' W 074°01'4 5.7
2018-Jul-10 11:51N 40°48' W 073°59'2 0.2
2018-Jul-09 22:29N 40°46' W 074°00'2 3.8
2018-Jul-09 22:01N 40°45' W 074°01'2 3.4
2018-Jul-09 21:30N 40°43' W 074°01'3 0.4
2018-Jul-09 13:01N 40°46' W 074°01'0 2.2
2018-Jul-09 13:00N 40°46' W 074°01'0 0.4
2018-Jul-09 12:28N 40°47' W 074°01'0 0.5
2018-Jul-09 11:44N 40°46' W 074°00'1 2.7
2018-Jul-09 11:18N 40°48' W 073°59'2 4.6
2018-Jul-09 10:58N 40°46' W 074°01'0 0.0
2018-Jul-09 00:36N 40°46' W 074°01'0 5.1
2018-Jul-09 00:30N 40°46' W 074°00'3 6.2
2018-Jul-09 00:00N 40°43' W 074°01'3 4.9
2018-Jul-08 23:26N 40°46' W 074°00'3 6.6
2018-Jul-08 23:00N 40°43' W 074°01'3 4.8
2018-Jul-08 22:26N 40°46' W 074°00'2 5.9
2018-Jul-08 22:01N 40°43' W 074°01'1 2.4
2018-Jul-08 21:31N 40°44' W 074°01'1 2.1
2018-Jul-08 21:00N 40°43' W 074°01'2 4.1
2018-Jul-08 20:26N 40°46' W 074°00'3 6.2
2018-Jul-08 20:00N 40°43' W 074°01'3 4.3
2018-Jul-08 19:25N 40°45' W 074°01'2 4.6
2018-Jul-08 19:00N 40°44' W 074°01'2 3.6
2018-Jul-08 18:26N 40°46' W 074°00'3 6.5
2018-Jul-08 18:00N 40°43' W 074°01'2 4.3
2018-Jul-08 17:30N 40°45' W 074°01'2 4.3
2018-Jul-08 17:00N 40°43' W 074°01'3 5.0
2018-Jul-08 16:27N 40°46' W 074°00'3 6.2
2018-Jul-08 16:00N 40°43' W 074°01'3 4.8
2018-Jul-08 15:27N 40°46' W 074°01'3 6.0
2018-Jul-08 15:00N 40°43' W 074°01'3 4.8
2018-Jul-08 14:28N 40°45' W 074°01'2 5.4
2018-Jul-08 14:00N 40°43' W 074°01'3 0.3
2018-Jul-08 03:06N 40°46' W 074°01'110.4
2018-Jul-08 03:00N 40°45' W 074°01'3 3.1
2018-Jul-08 02:03N 40°46' W 073°57'0 7.0
2018-Jul-08 02:01N 40°46' W 073°57'0 0.2
2018-Jul-08 00:55N 40°46' W 073°57'0 0.0
2018-Jul-08 00:02N 40°46' W 073°57'012.4
2018-Jul-08 00:00N 40°45' W 073°57'1 0.7
2018-Jul-07 23:02N 40°46' W 073°57'115.9
2018-Jul-07 23:00N 40°46' W 073°57'0 0.2
2018-Jul-07 21:58N 40°46' W 073°57'0 0.0
2018-Jul-07 20:57N 40°46' W 073°57'1 2.3
2018-Jul-07 20:29N 40°45' W 073°58'1 2.1
2018-Jul-07 19:55N 40°46' W 073°57'1 1.5
2018-Jul-07 19:30N 40°45' W 073°58'1 1.2
2018-Jul-07 18:56N 40°46' W 073°57'0 0.5
2018-Jul-07 18:30N 40°46' W 073°57'0 0.3
2018-Jul-07 17:59N 40°46' W 073°57'4 7.5
2018-Jul-07 17:30N 40°42' W 073°59'4 7.0
2018-Jul-07 17:00N 40°46' W 074°01'  

Dump ship's entire track history